Terminal Aerodrome Forecast
Issued by NWS Charleston, WV

Current Version | Previous Version | Graphics & Text | Print | Product List | Glossary On
Versions: 1 2 3 4 5 6 7 8 9 10 11 12 13 14 15 16 17 18 19 20 21 22 23 24 25 26 27
000
FTUS41 KRLX 050856 AAB
TAFEKN
TAF AMD
KEKN 050856Z 0509/0606 00000KT 1/2SM FG VV002
     FM051300 00000KT 2SM BR BKN002
     FM051400 00000KT P6SM BKN050
     FM052000 00000KT P6SM BKN050
     FM052200 VRB03KT P6SM VCSH BKN060
     FM060000 00000KT 5SM SHRA BR VCTS BKN080CB
     FM060500 00000KT 3SM SHRA BR BKN070=

USA.gov is the U.S. government's official web portal to all federal, state and local government web resources and services.